sensor_id;sensor_type;location;lat;lon;timestamp;P1;durP1;ratioP1;P2;durP2;ratioP2
75932;SDS011;64803;52.356;5.310;2023-01-06T00:00:21;14.07;;;5.22;;
75932;SDS011;64803;52.356;5.310;2023-01-06T00:02:47;13.43;;;4.07;;
75932;SDS011;64803;52.356;5.310;2023-01-06T00:05:13;15.80;;;5.28;;
75932;SDS011;64803;52.356;5.310;2023-01-06T00:07:40;17.30;;;6.05;;
75932;SDS011;64803;52.356;5.310;2023-01-06T00:10:06;13.88;;;3.90;;
75932;SDS011;64803;52.356;5.310;2023-01-06T00:12:32;16.20;;;4.65;;
75932;SDS011;64803;52.356;5.310;2023-01-06T00:14:58;13.23;;;3.97;;
75932;SDS011;64803;52.356;5.310;2023-01-06T00:17:24;13.43;;;4.43;;
75932;SDS011;64803;52.356;5.310;2023-01-06T00:19:50;17.17;;;4.85;;
75932;SDS011;64803;52.356;5.310;2023-01-06T00:22:16;14.73;;;3.40;;
75932;SDS011;64803;52.356;5.310;2023-01-06T00:24:42;12.27;;;3.92;;
75932;SDS011;64803;52.356;5.310;2023-01-06T00:27:08;10.20;;;2.67;;
75932;SDS011;64803;52.356;5.310;2023-01-06T00:29:34;12.32;;;3.92;;
75932;SDS011;64803;52.356;5.310;2023-01-06T00:32:01;12.55;;;3.83;;
75932;SDS011;64803;52.356;5.310;2023-01-06T00:34:28;14.05;;;3.03;;
75932;SDS011;64803;52.356;5.310;2023-01-06T00:36:55;9.02;;;3.13;;
75932;SDS011;64803;52.356;5.310;2023-01-06T00:39:21;14.48;;;3.75;;
75932;SDS011;64803;52.356;5.310;2023-01-06T00:41:47;11.15;;;2.90;;
75932;SDS011;64803;52.356;5.310;2023-01-06T00:44:28;12.10;;;3.10;;
75932;SDS011;64803;52.356;5.310;2023-01-06T00:46:55;8.60;;;2.70;;
75932;SDS011;64803;52.356;5.310;2023-01-06T00:49:22;12.27;;;2.95;;
75932;SDS011;64803;52.356;5.310;2023-01-06T00:51:48;9.13;;;2.53;;
75932;SDS011;64803;52.356;5.310;2023-01-06T00:54:14;9.70;;;2.55;;
75932;SDS011;64803;52.356;5.310;2023-01-06T00:56:42;10.43;;;2.40;;
75932;SDS011;64803;52.356;5.310;2023-01-06T00:59:12;9.82;;;2.20;;
75932;SDS011;64803;52.356;5.310;2023-01-06T01:01:40;7.72;;;2.10;;
75932;SDS011;64803;52.356;5.310;2023-01-06T01:04:07;8.02;;;2.75;;
75932;SDS011;64803;52.356;5.310;2023-01-06T01:06:34;9.70;;;2.60;;
75932;SDS011;64803;52.356;5.310;2023-01-06T01:09:01;9.40;;;3.05;;
75932;SDS011;64803;52.356;5.310;2023-01-06T01:11:28;6.78;;;2.63;;
75932;SDS011;64803;52.356;5.310;2023-01-06T01:14:14;8.82;;;2.40;;
75932;SDS011;64803;52.356;5.310;2023-01-06T01:16:42;6.50;;;2.15;;
75932;SDS011;64803;52.356;5.310;2023-01-06T01:19:09;9.60;;;3.47;;
75932;SDS011;64803;52.356;5.310;2023-01-06T01:21:35;5.80;;;2.05;;
75932;SDS011;64803;52.356;5.310;2023-01-06T01:24:02;7.13;;;3.00;;
75932;SDS011;64803;52.356;5.310;2023-01-06T01:26:28;8.10;;;1.85;;
75932;SDS011;64803;52.356;5.310;2023-01-06T01:28:55;9.95;;;3.75;;
75932;SDS011;64803;52.356;5.310;2023-01-06T01:31:22;10.10;;;3.58;;
75932;SDS011;64803;52.356;5.310;2023-01-06T01:33:48;11.63;;;3.40;;
75932;SDS011;64803;52.356;5.310;2023-01-06T01:36:15;8.93;;;3.33;;
75932;SDS011;64803;52.356;5.310;2023-01-06T01:38:42;14.75;;;4.35;;
75932;SDS011;64803;52.356;5.310;2023-01-06T01:41:12;7.38;;;2.70;;
75932;SDS011;64803;52.356;5.310;2023-01-06T01:46:25;8.60;;;3.10;;
75932;SDS011;64803;52.356;5.310;2023-01-06T01:49:08;8.02;;;3.13;;
75932;SDS011;64803;52.356;5.310;2023-01-06T01:51:48;8.18;;;3.10;;
75932;SDS011;64803;52.356;5.310;2023-01-06T01:54:22;8.00;;;3.10;;
75932;SDS011;64803;52.356;5.310;2023-01-06T01:56:53;10.48;;;3.63;;
75932;SDS011;64803;52.356;5.310;2023-01-06T01:59:25;10.15;;;2.70;;
75932;SDS011;64803;52.356;5.310;2023-01-06T02:01:56;7.60;;;2.75;;
75932;SDS011;64803;52.356;5.310;2023-01-06T02:04:23;7.45;;;2.88;;
75932;SDS011;64803;52.356;5.310;2023-01-06T02:06:51;8.95;;;3.10;;
75932;SDS011;64803;52.356;5.310;2023-01-06T02:09:41;6.13;;;2.35;;
75932;SDS011;64803;52.356;5.310;2023-01-06T02:12:26;7.13;;;2.83;;
75932;SDS011;64803;52.356;5.310;2023-01-06T02:14:52;11.43;;;3.42;;
75932;SDS011;64803;52.356;5.310;2023-01-06T02:17:36;7.80;;;2.88;;
75932;SDS011;64803;52.356;5.310;2023-01-06T02:20:16;7.13;;;2.47;;
75932;SDS011;64803;52.356;5.310;2023-01-06T02:43:09;8.93;;;2.72;;
75932;SDS011;64803;52.356;5.310;2023-01-06T02:48:19;8.95;;;3.10;;
75932;SDS011;64803;52.356;5.310;2023-01-06T02:50:55;6.50;;;2.15;;
75932;SDS011;64803;52.356;5.310;2023-01-06T02:53:31;8.07;;;1.73;;
75932;SDS011;64803;52.356;5.310;2023-01-06T02:56:01;5.18;;;1.90;;
75932;SDS011;64803;52.356;5.310;2023-01-06T02:58:39;4.00;;;1.40;;
75932;SDS011;64803;52.356;5.310;2023-01-06T03:01:25;5.45;;;1.73;;
75932;SDS011;64803;52.356;5.310;2023-01-06T03:03:58;6.25;;;1.85;;
75932;SDS011;64803;52.356;5.310;2023-01-06T03:06:29;3.83;;;1.50;;
75932;SDS011;64803;52.356;5.310;2023-01-06T03:08:58;4.95;;;1.55;;
75932;SDS011;64803;52.356;5.310;2023-01-06T03:11:26;9.38;;;1.75;;
75932;SDS011;64803;52.356;5.310;2023-01-06T03:14:04;7.10;;;2.13;;
75932;SDS011;64803;52.356;5.310;2023-01-06T03:16:46;8.05;;;2.15;;
75932;SDS011;64803;52.356;5.310;2023-01-06T03:19:13;5.20;;;1.00;;
75932;SDS011;64803;52.356;5.310;2023-01-06T03:21:40;5.80;;;1.73;;
75932;SDS011;64803;52.356;5.310;2023-01-06T03:24:09;5.72;;;1.42;;
75932;SDS011;64803;52.356;5.310;2023-01-06T03:26:39;8.15;;;1.60;;
75932;SDS011;64803;52.356;5.310;2023-01-06T03:29:08;8.93;;;1.85;;
75932;SDS011;64803;52.356;5.310;2023-01-06T03:37:12;11.68;;;1.90;;
75932;SDS011;64803;52.356;5.310;2023-01-06T03:42:39;6.05;;;1.60;;
75932;SDS011;64803;52.356;5.310;2023-01-06T03:53:49;9.93;;;1.92;;
75932;SDS011;64803;52.356;5.310;2023-01-06T03:56:28;2.40;;;0.85;;
75932;SDS011;64803;52.356;5.310;2023-01-06T03:59:03;5.05;;;1.13;;
75932;SDS011;64803;52.356;5.310;2023-01-06T04:01:34;3.60;;;1.00;;
75932;SDS011;64803;52.356;5.310;2023-01-06T04:04:02;1.27;;;0.47;;
75932;SDS011;64803;52.356;5.310;2023-01-06T04:06:28;2.72;;;0.90;;
75932;SDS011;64803;52.356;5.310;2023-01-06T04:08:54;3.60;;;0.75;;
75932;SDS011;64803;52.356;5.310;2023-01-06T04:11:21;4.43;;;1.08;;
75932;SDS011;64803;52.356;5.310;2023-01-06T04:14:07;5.50;;;1.20;;
75932;SDS011;64803;52.356;5.310;2023-01-06T04:16:33;4.63;;;1.30;;
75932;SDS011;64803;52.356;5.310;2023-01-06T04:19:00;3.85;;;0.85;;
75932;SDS011;64803;52.356;5.310;2023-01-06T04:21:29;2.55;;;0.90;;
75932;SDS011;64803;52.356;5.310;2023-01-06T04:23:55;2.70;;;0.73;;
75932;SDS011;64803;52.356;5.310;2023-01-06T04:26:21;6.50;;;1.35;;
75932;SDS011;64803;52.356;5.310;2023-01-06T04:31:15;5.10;;;0.93;;
75932;SDS011;64803;52.356;5.310;2023-01-06T04:33:41;3.83;;;0.85;;
75932;SDS011;64803;52.356;5.310;2023-01-06T04:36:09;5.22;;;0.80;;
75932;SDS011;64803;52.356;5.310;2023-01-06T04:38:38;5.40;;;1.23;;
75932;SDS011;64803;52.356;5.310;2023-01-06T04:41:04;5.70;;;1.92;;
75932;SDS011;64803;52.356;5.310;2023-01-06T04:43:30;5.75;;;1.30;;
75932;SDS011;64803;52.356;5.310;2023-01-06T04:45:57;5.05;;;1.63;;
75932;SDS011;64803;52.356;5.310;2023-01-06T04:48:24;3.17;;;0.70;;
75932;SDS011;64803;52.356;5.310;2023-01-06T04:50:58;7.25;;;1.52;;
75932;SDS011;64803;52.356;5.310;2023-01-06T04:53:28;3.95;;;1.35;;
75932;SDS011;64803;52.356;5.310;2023-01-06T04:55:54;4.00;;;1.17;;
75932;SDS011;64803;52.356;5.310;2023-01-06T04:58:20;2.45;;;0.90;;
75932;SDS011;64803;52.356;5.310;2023-01-06T05:00:45;5.03;;;1.48;;
75932;SDS011;64803;52.356;5.310;2023-01-06T05:03:11;7.43;;;1.55;;
75932;SDS011;64803;52.356;5.310;2023-01-06T05:05:40;4.93;;;1.30;;
75932;SDS011;64803;52.356;5.310;2023-01-06T05:08:06;4.50;;;1.35;;
75932;SDS011;64803;52.356;5.310;2023-01-06T05:10:32;4.97;;;1.50;;
75932;SDS011;64803;52.356;5.310;2023-01-06T05:12:58;1.92;;;0.80;;
75932;SDS011;64803;52.356;5.310;2023-01-06T05:15:24;3.78;;;1.13;;
75932;SDS011;64803;52.356;5.310;2023-01-06T05:17:50;4.53;;;1.58;;
75932;SDS011;64803;52.356;5.310;2023-01-06T05:20:16;6.53;;;1.50;;
75932;SDS011;64803;52.356;5.310;2023-01-06T05:22:42;5.53;;;1.30;;
75932;SDS011;64803;52.356;5.310;2023-01-06T05:25:08;7.22;;;1.50;;
75932;SDS011;64803;52.356;5.310;2023-01-06T05:27:34;4.82;;;1.60;;
75932;SDS011;64803;52.356;5.310;2023-01-06T05:30:00;7.78;;;1.80;;
75932;SDS011;64803;52.356;5.310;2023-01-06T05:32:26;5.80;;;1.88;;
75932;SDS011;64803;52.356;5.310;2023-01-06T05:34:52;5.55;;;1.80;;
75932;SDS011;64803;52.356;5.310;2023-01-06T05:37:18;5.57;;;1.67;;
75932;SDS011;64803;52.356;5.310;2023-01-06T05:39:44;6.15;;;1.90;;
75932;SDS011;64803;52.356;5.310;2023-01-06T05:42:10;4.75;;;1.70;;
75932;SDS011;64803;52.356;5.310;2023-01-06T05:44:36;8.18;;;2.45;;
75932;SDS011;64803;52.356;5.310;2023-01-06T05:47:02;7.80;;;1.90;;
75932;SDS011;64803;52.356;5.310;2023-01-06T05:49:28;9.52;;;2.35;;
75932;SDS011;64803;52.356;5.310;2023-01-06T05:51:54;7.07;;;1.98;;
75932;SDS011;64803;52.356;5.310;2023-01-06T05:54:19;7.70;;;2.63;;
75932;SDS011;64803;52.356;5.310;2023-01-06T05:56:45;8.02;;;3.35;;
75932;SDS011;64803;52.356;5.310;2023-01-06T05:59:11;6.35;;;2.10;;
75932;SDS011;64803;52.356;5.310;2023-01-06T06:01:38;3.78;;;1.40;;
75932;SDS011;64803;52.356;5.310;2023-01-06T06:04:04;6.70;;;2.55;;
75932;SDS011;64803;52.356;5.310;2023-01-06T06:06:30;8.07;;;2.38;;
75932;SDS011;64803;52.356;5.310;2023-01-06T06:08:56;7.65;;;3.13;;
75932;SDS011;64803;52.356;5.310;2023-01-06T06:11:23;5.60;;;2.28;;
75932;SDS011;64803;52.356;5.310;2023-01-06T06:13:53;6.80;;;2.85;;
75932;SDS011;64803;52.356;5.310;2023-01-06T06:16:22;8.88;;;2.88;;
75932;SDS011;64803;52.356;5.310;2023-01-06T06:18:50;8.32;;;4.10;;
75932;SDS011;64803;52.356;5.310;2023-01-06T06:21:19;8.15;;;3.88;;
75932;SDS011;64803;52.356;5.310;2023-01-06T06:23:46;7.63;;;3.63;;
75932;SDS011;64803;52.356;5.310;2023-01-06T06:26:13;6.45;;;2.78;;
75932;SDS011;64803;52.356;5.310;2023-01-06T06:28:40;10.52;;;4.07;;
75932;SDS011;64803;52.356;5.310;2023-01-06T06:31:07;7.78;;;3.42;;
75932;SDS011;64803;52.356;5.310;2023-01-06T06:33:38;7.13;;;4.10;;
75932;SDS011;64803;52.356;5.310;2023-01-06T06:36:05;7.60;;;4.20;;
75932;SDS011;64803;52.356;5.310;2023-01-06T06:38:37;8.52;;;3.33;;
75932;SDS011;64803;52.356;5.310;2023-01-06T06:41:03;9.23;;;3.75;;
75932;SDS011;64803;52.356;5.310;2023-01-06T06:43:29;9.85;;;3.10;;
75932;SDS011;64803;52.356;5.310;2023-01-06T06:45:56;6.93;;;3.78;;
75932;SDS011;64803;52.356;5.310;2023-01-06T06:48:22;7.03;;;3.17;;
75932;SDS011;64803;52.356;5.310;2023-01-06T06:50:56;7.68;;;3.45;;
75932;SDS011;64803;52.356;5.310;2023-01-06T06:53:26;8.63;;;4.20;;
75932;SDS011;64803;52.356;5.310;2023-01-06T06:55:53;8.48;;;3.90;;
75932;SDS011;64803;52.356;5.310;2023-01-06T06:58:20;9.45;;;4.53;;
75932;SDS011;64803;52.356;5.310;2023-01-06T07:00:46;8.70;;;3.85;;
75932;SDS011;64803;52.356;5.310;2023-01-06T07:03:15;8.20;;;3.42;;
75932;SDS011;64803;52.356;5.310;2023-01-06T07:05:42;6.32;;;2.80;;
75932;SDS011;64803;52.356;5.310;2023-01-06T07:08:10;6.05;;;3.13;;
75932;SDS011;64803;52.356;5.310;2023-01-06T07:10:36;6.95;;;4.05;;
75932;SDS011;64803;52.356;5.310;2023-01-06T07:13:03;7.05;;;3.80;;
75932;SDS011;64803;52.356;5.310;2023-01-06T07:15:29;8.10;;;3.72;;
75932;SDS011;64803;52.356;5.310;2023-01-06T07:17:58;9.60;;;3.75;;
75932;SDS011;64803;52.356;5.310;2023-01-06T07:20:25;10.57;;;4.55;;
75932;SDS011;64803;52.356;5.310;2023-01-06T07:22:51;6.32;;;3.10;;
75932;SDS011;64803;52.356;5.310;2023-01-06T07:25:17;7.75;;;3.35;;
75932;SDS011;64803;52.356;5.310;2023-01-06T07:27:43;8.65;;;2.95;;
75932;SDS011;64803;52.356;5.310;2023-01-06T07:30:09;8.73;;;2.17;;
75932;SDS011;64803;52.356;5.310;2023-01-06T07:32:35;12.43;;;2.63;;
75932;SDS011;64803;52.356;5.310;2023-01-06T07:35:01;8.65;;;2.17;;
75932;SDS011;64803;52.356;5.310;2023-01-06T07:37:28;10.77;;;1.73;;
75932;SDS011;64803;52.356;5.310;2023-01-06T07:39:54;8.32;;;1.98;;
75932;SDS011;64803;52.356;5.310;2023-01-06T07:42:20;6.47;;;0.95;;
75932;SDS011;64803;52.356;5.310;2023-01-06T07:44:46;5.40;;;1.25;;
75932;SDS011;64803;52.356;5.310;2023-01-06T07:47:15;10.30;;;1.10;;
75932;SDS011;64803;52.356;5.310;2023-01-06T07:49:41;9.75;;;2.00;;
75932;SDS011;64803;52.356;5.310;2023-01-06T07:52:07;12.88;;;1.38;;
75932;SDS011;64803;52.356;5.310;2023-01-06T07:54:33;8.23;;;1.50;;
75932;SDS011;64803;52.356;5.310;2023-01-06T07:56:59;11.10;;;1.92;;
75932;SDS011;64803;52.356;5.310;2023-01-06T07:59:25;14.10;;;2.22;;
75932;SDS011;64803;52.356;5.310;2023-01-06T08:01:51;7.63;;;1.48;;
75932;SDS011;64803;52.356;5.310;2023-01-06T08:04:17;9.30;;;1.85;;
75932;SDS011;64803;52.356;5.310;2023-01-06T08:06:43;8.45;;;1.10;;
75932;SDS011;64803;52.356;5.310;2023-01-06T08:09:09;7.82;;;1.10;;
75932;SDS011;64803;52.356;5.310;2023-01-06T08:11:35;6.65;;;1.05;;
75932;SDS011;64803;52.356;5.310;2023-01-06T08:14:01;6.78;;;1.13;;
75932;SDS011;64803;52.356;5.310;2023-01-06T08:16:27;15.10;;;1.98;;
75932;SDS011;64803;52.356;5.310;2023-01-06T08:18:53;19.88;;;1.92;;
75932;SDS011;64803;52.356;5.310;2023-01-06T08:21:19;16.52;;;2.42;;
75932;SDS011;64803;52.356;5.310;2023-01-06T08:23:45;11.38;;;1.67;;
75932;SDS011;64803;52.356;5.310;2023-01-06T08:26:12;16.08;;;2.05;;
75932;SDS011;64803;52.356;5.310;2023-01-06T08:28:40;18.50;;;1.75;;
75932;SDS011;64803;52.356;5.310;2023-01-06T08:33:35;11.85;;;1.67;;
75932;SDS011;64803;52.356;5.310;2023-01-06T08:36:01;14.77;;;2.15;;
75932;SDS011;64803;52.356;5.310;2023-01-06T08:38:33;12.10;;;1.88;;
75932;SDS011;64803;52.356;5.310;2023-01-06T08:41:00;10.43;;;1.90;;
75932;SDS011;64803;52.356;5.310;2023-01-06T08:43:27;12.90;;;1.70;;
75932;SDS011;64803;52.356;5.310;2023-01-06T08:46:01;15.13;;;2.60;;
75932;SDS011;64803;52.356;5.310;2023-01-06T08:48:29;10.60;;;1.25;;
75932;SDS011;64803;52.356;5.310;2023-01-06T08:51:00;14.18;;;1.50;;
75932;SDS011;64803;52.356;5.310;2023-01-06T08:56:01;9.27;;;1.10;;
75932;SDS011;64803;52.356;5.310;2023-01-06T08:58:27;15.00;;;1.25;;
75932;SDS011;64803;52.356;5.310;2023-01-06T09:00:53;7.70;;;1.05;;
75932;SDS011;64803;52.356;5.310;2023-01-06T09:03:19;6.88;;;1.15;;
75932;SDS011;64803;52.356;5.310;2023-01-06T09:05:55;11.80;;;1.20;;
75932;SDS011;64803;52.356;5.310;2023-01-06T09:08:22;9.75;;;1.10;;
75932;SDS011;64803;52.356;5.310;2023-01-06T09:10:49;20.88;;;1.73;;
75932;SDS011;64803;52.356;5.310;2023-01-06T09:13:16;10.18;;;2.53;;
75932;SDS011;64803;52.356;5.310;2023-01-06T09:15:42;10.45;;;1.42;;
75932;SDS011;64803;52.356;5.310;2023-01-06T09:18:10;8.95;;;1.08;;
75932;SDS011;64803;52.356;5.310;2023-01-06T09:20:37;8.10;;;1.13;;
75932;SDS011;64803;52.356;5.310;2023-01-06T09:23:03;12.57;;;1.30;;
75932;SDS011;64803;52.356;5.310;2023-01-06T09:25:29;6.15;;;0.95;;
75932;SDS011;64803;52.356;5.310;2023-01-06T09:27:55;19.48;;;1.73;;
75932;SDS011;64803;52.356;5.310;2023-01-06T09:30:23;10.43;;;1.35;;
75932;SDS011;64803;52.356;5.310;2023-01-06T09:32:50;7.05;;;1.40;;
75932;SDS011;64803;52.356;5.310;2023-01-06T09:35:16;12.70;;;1.23;;
75932;SDS011;64803;52.356;5.310;2023-01-06T09:37:42;7.80;;;1.00;;
75932;SDS011;64803;52.356;5.310;2023-01-06T09:40:09;13.65;;;2.05;;
75932;SDS011;64803;52.356;5.310;2023-01-06T09:45:19;10.10;;;1.33;;
75932;SDS011;64803;52.356;5.310;2023-01-06T09:47:56;10.35;;;1.20;;
75932;SDS011;64803;52.356;5.310;2023-01-06T09:53:10;13.52;;;1.45;;
75932;SDS011;64803;52.356;5.310;2023-01-06T09:55:46;13.32;;;1.10;;
75932;SDS011;64803;52.356;5.310;2023-01-06T09:58:15;9.80;;;1.50;;
75932;SDS011;64803;52.356;5.310;2023-01-06T10:00:46;12.43;;;1.58;;
75932;SDS011;64803;52.356;5.310;2023-01-06T10:03:16;12.88;;;1.90;;
75932;SDS011;64803;52.356;5.310;2023-01-06T10:05:50;8.02;;;1.10;;
75932;SDS011;64803;52.356;5.310;2023-01-06T10:19:36;9.02;;;0.73;;
75932;SDS011;64803;52.356;5.310;2023-01-06T10:25:05;4.20;;;0.70;;
75932;SDS011;64803;52.356;5.310;2023-01-06T10:28:01;6.40;;;0.75;;
75932;SDS011;64803;52.356;5.310;2023-01-06T10:30:39;10.25;;;1.10;;
75932;SDS011;64803;52.356;5.310;2023-01-06T10:33:13;8.18;;;0.95;;
75932;SDS011;64803;52.356;5.310;2023-01-06T10:35:48;6.47;;;0.43;;
75932;SDS011;64803;52.356;5.310;2023-01-06T10:38:14;10.30;;;1.23;;
75932;SDS011;64803;52.356;5.310;2023-01-06T10:40:41;5.28;;;0.90;;
75932;SDS011;64803;52.356;5.310;2023-01-06T10:43:09;10.68;;;1.02;;
75932;SDS011;64803;52.356;5.310;2023-01-06T10:45:45;4.95;;;0.50;;
75932;SDS011;64803;52.356;5.310;2023-01-06T10:48:14;6.88;;;1.13;;
75932;SDS011;64803;52.356;5.310;2023-01-06T10:50:42;7.13;;;0.80;;
75932;SDS011;64803;52.356;5.310;2023-01-06T10:53:09;4.03;;;0.88;;
75932;SDS011;64803;52.356;5.310;2023-01-06T11:00:55;3.83;;;0.50;;
75932;SDS011;64803;52.356;5.310;2023-01-06T11:03:22;4.47;;;0.70;;
75932;SDS011;64803;52.356;5.310;2023-01-06T11:05:57;6.57;;;0.85;;
75932;SDS011;64803;52.356;5.310;2023-01-06T11:08:29;5.88;;;0.63;;
75932;SDS011;64803;52.356;5.310;2023-01-06T11:10:56;5.85;;;0.52;;
75932;SDS011;64803;52.356;5.310;2023-01-06T11:13:30;9.07;;;1.25;;
75932;SDS011;64803;52.356;5.310;2023-01-06T11:16:00;10.10;;;1.27;;
75932;SDS011;64803;52.356;5.310;2023-01-06T11:18:31;6.13;;;1.27;;
75932;SDS011;64803;52.356;5.310;2023-01-06T11:23:39;4.50;;;0.68;;
75932;SDS011;64803;52.356;5.310;2023-01-06T11:26:20;9.30;;;0.73;;
75932;SDS011;64803;52.356;5.310;2023-01-06T11:28:48;8.68;;;1.02;;
75932;SDS011;64803;52.356;5.310;2023-01-06T11:31:22;8.02;;;0.88;;
75932;SDS011;64803;52.356;5.310;2023-01-06T11:33:54;5.07;;;0.80;;
75932;SDS011;64803;52.356;5.310;2023-01-06T11:36:23;6.68;;;0.90;;
75932;SDS011;64803;52.356;5.310;2023-01-06T11:39:02;9.35;;;1.58;;
75932;SDS011;64803;52.356;5.310;2023-01-06T11:41:38;6.15;;;1.00;;
75932;SDS011;64803;52.356;5.310;2023-01-06T11:44:12;9.40;;;1.15;;
75932;SDS011;64803;52.356;5.310;2023-01-06T11:46:51;5.57;;;0.82;;
75932;SDS011;64803;52.356;5.310;2023-01-06T11:51:59;7.55;;;0.98;;
75932;SDS011;64803;52.356;5.310;2023-01-06T11:54:30;3.25;;;0.70;;
75932;SDS011;64803;52.356;5.310;2023-01-06T11:56:58;8.23;;;1.00;;
75932;SDS011;64803;52.356;5.310;2023-01-06T11:59:26;7.65;;;0.77;;
75932;SDS011;64803;52.356;5.310;2023-01-06T12:02:06;5.00;;;0.73;;
75932;SDS011;64803;52.356;5.310;2023-01-06T12:04:41;4.93;;;0.57;;
75932;SDS011;64803;52.356;5.310;2023-01-06T12:10:11;12.98;;;1.10;;
75932;SDS011;64803;52.356;5.310;2023-01-06T12:12:43;8.88;;;0.98;;
75932;SDS011;64803;52.356;5.310;2023-01-06T12:15:10;7.22;;;0.80;;
75932;SDS011;64803;52.356;5.310;2023-01-06T12:22:59;7.45;;;1.40;;
75932;SDS011;64803;52.356;5.310;2023-01-06T12:25:34;5.25;;;0.75;;
75932;SDS011;64803;52.356;5.310;2023-01-06T12:28:05;10.38;;;1.08;;
75932;SDS011;64803;52.356;5.310;2023-01-06T12:33:38;4.95;;;0.82;;
75932;SDS011;64803;52.356;5.310;2023-01-06T12:36:27;8.63;;;0.85;;
75932;SDS011;64803;52.356;5.310;2023-01-06T12:42:04;8.02;;;1.08;;
75932;SDS011;64803;52.356;5.310;2023-01-06T12:44:39;6.70;;;0.82;;
75932;SDS011;64803;52.356;5.310;2023-01-06T12:52:44;6.80;;;0.93;;
75932;SDS011;64803;52.356;5.310;2023-01-06T12:55:15;2.33;;;0.60;;
75932;SDS011;64803;52.356;5.310;2023-01-06T13:00:37;5.80;;;1.00;;
75932;SDS011;64803;52.356;5.310;2023-01-06T13:20:29;8.63;;;1.00;;
75932;SDS011;64803;52.356;5.310;2023-01-06T13:36:28;4.82;;;0.82;;
75932;SDS011;64803;52.356;5.310;2023-01-06T13:41:42;5.53;;;0.90;;
75932;SDS011;64803;52.356;5.310;2023-01-06T13:44:13;10.38;;;1.58;;
75932;SDS011;64803;52.356;5.310;2023-01-06T13:46:45;6.72;;;0.73;;
75932;SDS011;64803;52.356;5.310;2023-01-06T13:49:14;9.88;;;1.08;;
75932;SDS011;64803;52.356;5.310;2023-01-06T13:51:41;9.38;;;1.63;;
75932;SDS011;64803;52.356;5.310;2023-01-06T14:04:59;5.38;;;0.90;;
75932;SDS011;64803;52.356;5.310;2023-01-06T14:07:38;8.38;;;0.63;;
75932;SDS011;64803;52.356;5.310;2023-01-06T14:10:26;3.75;;;0.80;;
75932;SDS011;64803;52.356;5.310;2023-01-06T14:12:55;8.27;;;1.20;;
75932;SDS011;64803;52.356;5.310;2023-01-06T14:15:24;5.22;;;1.10;;
75932;SDS011;64803;52.356;5.310;2023-01-06T14:17:54;7.50;;;1.45;;
75932;SDS011;64803;52.356;5.310;2023-01-06T14:20:22;8.65;;;1.27;;
75932;SDS011;64803;52.356;5.310;2023-01-06T14:22:57;7.13;;;1.00;;
75932;SDS011;64803;52.356;5.310;2023-01-06T14:25:27;3.33;;;0.80;;
75932;SDS011;64803;52.356;5.310;2023-01-06T14:30:23;5.53;;;1.10;;
75932;SDS011;64803;52.356;5.310;2023-01-06T14:35:33;7.43;;;1.23;;
75932;SDS011;64803;52.356;5.310;2023-01-06T14:38:22;7.70;;;1.33;;
75932;SDS011;64803;52.356;5.310;2023-01-06T14:49:05;8.63;;;1.50;;
75932;SDS011;64803;52.356;5.310;2023-01-06T14:51:40;6.13;;;1.10;;
75932;SDS011;64803;52.356;5.310;2023-01-06T14:54:16;6.80;;;1.10;;
75932;SDS011;64803;52.356;5.310;2023-01-06T14:56:54;5.82;;;1.00;;
75932;SDS011;64803;52.356;5.310;2023-01-06T14:59:21;6.28;;;1.15;;
75932;SDS011;64803;52.356;5.310;2023-01-06T15:01:53;7.55;;;1.17;;
75932;SDS011;64803;52.356;5.310;2023-01-06T15:04:26;7.65;;;1.00;;
75932;SDS011;64803;52.356;5.310;2023-01-06T15:09:47;4.95;;;1.00;;
75932;SDS011;64803;52.356;5.310;2023-01-06T15:12:48;7.85;;;0.95;;
75932;SDS011;64803;52.356;5.310;2023-01-06T15:15:17;9.38;;;1.45;;
75932;SDS011;64803;52.356;5.310;2023-01-06T15:17:49;3.35;;;0.85;;
75932;SDS011;64803;52.356;5.310;2023-01-06T15:20:17;8.23;;;0.90;;
75932;SDS011;64803;52.356;5.310;2023-01-06T15:22:44;8.00;;;1.17;;
75932;SDS011;64803;52.356;5.310;2023-01-06T15:25:21;5.35;;;1.13;;
75932;SDS011;64803;52.356;5.310;2023-01-06T15:27:49;5.63;;;1.10;;
75932;SDS011;64803;52.356;5.310;2023-01-06T15:30:20;7.68;;;0.70;;
75932;SDS011;64803;52.356;5.310;2023-01-06T15:32:49;5.20;;;0.70;;
75932;SDS011;64803;52.356;5.310;2023-01-06T15:35:19;6.70;;;1.27;;
75932;SDS011;64803;52.356;5.310;2023-01-06T15:37:57;5.85;;;0.80;;
75932;SDS011;64803;52.356;5.310;2023-01-06T15:40:28;2.25;;;0.63;;
75932;SDS011;64803;52.356;5.310;2023-01-06T15:42:54;4.47;;;0.80;;
75932;SDS011;64803;52.356;5.310;2023-01-06T15:45:21;3.15;;;0.80;;
75932;SDS011;64803;52.356;5.310;2023-01-06T15:47:53;2.17;;;0.80;;
75932;SDS011;64803;52.356;5.310;2023-01-06T15:50:23;3.85;;;0.70;;
75932;SDS011;64803;52.356;5.310;2023-01-06T15:52:56;6.75;;;0.70;;
75932;SDS011;64803;52.356;5.310;2023-01-06T15:55:35;4.22;;;0.70;;
75932;SDS011;64803;52.356;5.310;2023-01-06T15:58:08;7.38;;;1.00;;
75932;SDS011;64803;52.356;5.310;2023-01-06T16:00:50;8.68;;;1.02;;
75932;SDS011;64803;52.356;5.310;2023-01-06T16:03:24;7.82;;;1.30;;
75932;SDS011;64803;52.356;5.310;2023-01-06T16:06:02;3.20;;;1.02;;
75932;SDS011;64803;52.356;5.310;2023-01-06T16:08:31;8.38;;;1.35;;
75932;SDS011;64803;52.356;5.310;2023-01-06T16:13:35;5.20;;;0.90;;
75932;SDS011;64803;52.356;5.310;2023-01-06T16:18:40;3.58;;;0.80;;
75932;SDS011;64803;52.356;5.310;2023-01-06T16:21:14;4.45;;;0.70;;
75932;SDS011;64803;52.356;5.310;2023-01-06T16:23:50;6.47;;;1.13;;
75932;SDS011;64803;52.356;5.310;2023-01-06T16:26:21;6.32;;;1.08;;
75932;SDS011;64803;52.356;5.310;2023-01-06T16:28:51;8.00;;;1.67;;
75932;SDS011;64803;52.356;5.310;2023-01-06T16:36:59;9.15;;;1.20;;
75932;SDS011;64803;52.356;5.310;2023-01-06T16:39:26;7.32;;;1.08;;
75932;SDS011;64803;52.356;5.310;2023-01-06T16:44:24;5.88;;;0.80;;
75932;SDS011;64803;52.356;5.310;2023-01-06T16:46:51;4.38;;;1.02;;
75932;SDS011;64803;52.356;5.310;2023-01-06T16:49:17;5.30;;;0.90;;
75932;SDS011;64803;52.356;5.310;2023-01-06T16:51:44;7.70;;;1.20;;
75932;SDS011;64803;52.356;5.310;2023-01-06T16:54:11;7.72;;;1.20;;
75932;SDS011;64803;52.356;5.310;2023-01-06T16:56:42;7.68;;;1.40;;
75932;SDS011;64803;52.356;5.310;2023-01-06T16:59:15;5.22;;;1.38;;
75932;SDS011;64803;52.356;5.310;2023-01-06T17:01:42;6.53;;;1.50;;
75932;SDS011;64803;52.356;5.310;2023-01-06T17:04:10;7.75;;;1.65;;
75932;SDS011;64803;52.356;5.310;2023-01-06T17:06:37;9.10;;;2.45;;
75932;SDS011;64803;52.356;5.310;2023-01-06T17:09:15;7.88;;;2.00;;
75932;SDS011;64803;52.356;5.310;2023-01-06T17:11:44;12.40;;;1.95;;
75932;SDS011;64803;52.356;5.310;2023-01-06T17:14:14;7.90;;;1.70;;
75932;SDS011;64803;52.356;5.310;2023-01-06T17:16:42;8.18;;;2.00;;
75932;SDS011;64803;52.356;5.310;2023-01-06T17:19:25;7.00;;;2.00;;
75932;SDS011;64803;52.356;5.310;2023-01-06T17:21:56;7.60;;;1.83;;
75932;SDS011;64803;52.356;5.310;2023-01-06T17:24:27;6.45;;;2.13;;
75932;SDS011;64803;52.356;5.310;2023-01-06T17:26:59;11.40;;;2.22;;
75932;SDS011;64803;52.356;5.310;2023-01-06T17:29:32;6.78;;;1.83;;
75932;SDS011;64803;52.356;5.310;2023-01-06T17:32:03;12.13;;;2.30;;
75932;SDS011;64803;52.356;5.310;2023-01-06T17:34:39;11.32;;;2.45;;
75932;SDS011;64803;52.356;5.310;2023-01-06T17:37:06;9.55;;;2.80;;
75932;SDS011;64803;52.356;5.310;2023-01-06T17:39:39;18.80;;;2.53;;
75932;SDS011;64803;52.356;5.310;2023-01-06T17:47:05;13.27;;;2.50;;
75932;SDS011;64803;52.356;5.310;2023-01-06T17:49:53;8.88;;;2.33;;
75932;SDS011;64803;52.356;5.310;2023-01-06T17:52:43;12.75;;;2.60;;
75932;SDS011;64803;52.356;5.310;2023-01-06T17:57:55;8.30;;;2.42;;
75932;SDS011;64803;52.356;5.310;2023-01-06T18:00:24;12.77;;;2.60;;
75932;SDS011;64803;52.356;5.310;2023-01-06T18:02:55;12.88;;;2.70;;
75932;SDS011;64803;52.356;5.310;2023-01-06T18:10:35;6.65;;;2.25;;